createdAt,value
2019-04-07T00:02:03.715Z,67.26
2019-04-07T00:04:31.099Z,67.38
2019-04-07T00:06:58.808Z,67.55
2019-04-07T00:09:26.263Z,68.68
2019-04-07T00:11:53.605Z,68.39
2019-04-07T00:14:20.955Z,68.71
2019-04-07T00:16:48.376Z,68.57
2019-04-07T00:19:15.718Z,68.83
2019-04-07T00:21:43.023Z,68.23
2019-04-07T00:24:10.605Z,68.24
2019-04-07T00:26:38.064Z,68.96
2019-04-07T00:29:05.325Z,68.90
2019-04-07T00:31:32.610Z,71.46
2019-04-07T00:34:00.429Z,69.55
2019-04-07T00:36:27.967Z,71.05
2019-04-07T00:38:55.225Z,69.56
2019-04-07T00:41:22.377Z,70.67
2019-04-07T00:43:49.669Z,73.38
2019-04-07T00:46:16.835Z,73.39
2019-04-07T00:48:44.120Z,75.24
2019-04-07T00:51:11.562Z,75.01
2019-04-07T00:53:39.357Z,73.97
2019-04-07T00:56:06.709Z,73.12
2019-04-07T00:58:34.351Z,74.14
2019-04-07T01:01:01.759Z,74.03
2019-04-07T01:03:29.119Z,73.16
2019-04-07T01:05:56.668Z,74.82
2019-04-07T01:08:23.813Z,74.15
2019-04-07T01:10:50.993Z,74.02
2019-04-07T01:13:18.415Z,75.77
2019-04-07T01:15:46.028Z,72.12
2019-04-07T01:18:13.431Z,73.09
2019-04-07T01:20:40.612Z,72.42
2019-04-07T01:23:08.127Z,72.52
2019-04-07T01:25:35.746Z,71.13
2019-04-07T01:28:03.401Z,71.45
2019-04-07T01:30:30.596Z,70.77
2019-04-07T01:32:57.753Z,71.10
2019-04-07T01:35:25.582Z,71.01
2019-04-07T01:37:52.855Z,71.60
2019-04-07T01:40:20.029Z,71.65
2019-04-07T01:42:57.726Z,73.18
2019-04-07T01:45:53.481Z,73.36
2019-04-07T01:48:29.289Z,74.58
2019-04-07T01:51:04.513Z,74.78
2019-04-07T01:53:55.345Z,76.65
2019-04-07T01:56:46.456Z,76.25
2019-04-07T01:59:51.943Z,74.69
2019-04-07T02:02:29.474Z,75.14
2019-04-07T02:05:05.555Z,77.41
2019-04-07T02:07:40.360Z,76.69
2019-04-07T02:10:24.145Z,75.05
2019-04-07T02:13:09.854Z,73.32
2019-04-07T02:15:56.920Z,72.60
2019-04-07T02:18:32.056Z,73.08
2019-04-07T02:21:03.645Z,73.01
2019-04-07T02:23:42.070Z,72.35
2019-04-07T02:26:15.611Z,73.62
2019-04-07T02:29:01.944Z,73.20
2019-04-07T02:31:54.729Z,73.60
2019-04-07T02:34:27.828Z,72.67
2019-04-07T02:37:03.034Z,72.01
2019-04-07T02:39:39.427Z,72.48
2019-04-07T02:42:21.534Z,72.11
2019-04-07T02:45:00.158Z,73.10
2019-04-07T02:47:50.050Z,72.48
2019-04-07T02:50:24.524Z,73.04
2019-04-07T02:53:14.838Z,73.25
2019-04-07T02:56:20.802Z,73.81
2019-04-07T02:58:54.938Z,74.60
2019-04-07T03:01:41.425Z,71.66
2019-04-07T03:04:29.280Z,73.63
2019-04-07T03:07:04.932Z,73.92
2019-04-07T03:09:54.824Z,72.92
2019-04-07T03:12:39.371Z,72.88
2019-04-07T03:15:20.459Z,73.49
2019-04-07T03:18:07.359Z,77.24
2019-04-07T03:20:54.374Z,74.85
2019-04-07T03:23:40.302Z,76.00
2019-04-07T03:26:32.127Z,77.16
2019-04-07T03:29:23.629Z,75.90
2019-04-07T03:32:30.539Z,75.02
2019-04-07T03:35:20.945Z,74.69
2019-04-07T03:38:07.605Z,74.50
2019-04-07T03:40:55.020Z,74.26
2019-04-07T03:43:46.351Z,74.75
2019-04-07T03:46:32.605Z,75.50
2019-04-07T03:49:06.128Z,75.64
2019-04-07T03:51:37.917Z,77.91
2019-04-07T03:54:15.430Z,78.25
2019-04-07T03:57:02.993Z,77.73
2019-04-07T03:59:47.853Z,77.02
2019-04-07T04:02:44.338Z,75.53
2019-04-07T04:05:41.359Z,75.64
2019-04-07T04:08:24.523Z,76.35
2019-04-07T04:11:11.728Z,75.41
2019-04-07T04:13:58.600Z,75.61
2019-04-07T04:16:34.113Z,75.69
2019-04-07T04:19:02.453Z,75.79
2019-04-07T04:21:30.744Z,75.82
2019-04-07T04:23:58.926Z,76.21
2019-04-07T04:26:26.903Z,76.29
2019-04-07T04:28:54.187Z,76.24
2019-04-07T04:31:21.832Z,76.40
2019-04-07T04:33:49.005Z,77.21
2019-04-07T04:36:16.154Z,78.11
2019-04-07T04:38:44.037Z,76.57
2019-04-07T04:41:11.350Z,76.40
2019-04-07T04:43:39.264Z,76.88
2019-04-07T04:46:09.559Z,76.15
2019-04-07T04:48:35.705Z,75.88
2019-04-07T04:51:03.499Z,76.75
2019-04-07T04:53:30.897Z,76.37
2019-04-07T04:55:58.993Z,76.39
2019-04-07T04:58:27.051Z,76.90
2019-04-07T05:00:54.478Z,76.86
2019-04-07T05:03:21.662Z,77.16
2019-04-07T05:05:48.789Z,76.95
2019-04-07T05:08:16.227Z,77.03
2019-04-07T05:10:43.996Z,76.65
2019-04-07T05:13:11.245Z,77.45
2019-04-07T05:15:39.014Z,76.72
2019-04-07T05:18:06.457Z,77.14
2019-04-07T05:20:34.383Z,77.16
2019-04-07T05:23:01.816Z,77.16
2019-04-07T05:25:29.942Z,77.21
2019-04-07T05:27:57.125Z,77.17
2019-04-07T05:30:24.385Z,78.96
2019-04-07T05:32:52.337Z,78.24
2019-04-07T05:35:19.699Z,78.09
2019-04-07T05:37:46.831Z,77.46
2019-04-07T05:40:15.511Z,79.04
2019-04-07T05:42:43.344Z,78.83
2019-04-07T05:45:11.412Z,79.54
2019-04-07T05:47:43.606Z,78.91
2019-04-07T05:50:08.524Z,78.62
2019-04-07T05:52:39.368Z,79.08
2019-04-07T05:55:05.450Z,79.13
2019-04-07T05:57:34.899Z,79.27
2019-04-07T06:00:04.254Z,79.39
2019-04-07T06:02:33.987Z,78.84
2019-04-07T06:05:01.252Z,79.27
2019-04-07T06:07:30.719Z,79.03
2019-04-07T06:09:57.691Z,78.82
2019-04-07T06:12:24.843Z,79.25
2019-04-07T06:14:52.090Z,79.35
2019-04-07T06:17:19.468Z,78.28
2019-04-07T06:19:46.630Z,76.39
2019-04-07T06:22:20.639Z,74.67
2019-04-07T06:24:47.279Z,70.92
2019-04-07T06:27:16.902Z,69.23
2019-04-07T06:29:43.683Z,67.19
2019-04-07T06:32:11.229Z,66.16
2019-04-07T06:34:41.104Z,64.58
2019-04-07T06:37:07.717Z,65.98
2019-04-07T06:39:35.308Z,61.59
2019-04-07T06:42:03.414Z,60.00
2019-04-07T06:44:30.730Z,61.85
2019-04-07T06:47:09.390Z,59.18
2019-04-07T06:50:05.770Z,58.79
2019-04-07T06:52:55.347Z,57.89
2019-04-07T06:55:40.805Z,52.76
2019-04-07T06:58:19.886Z,50.77
2019-04-07T07:01:19.089Z,54.43
2019-04-07T07:04:24.399Z,51.58
2019-04-07T07:07:16.758Z,50.05
2019-04-07T07:10:06.589Z,52.15
2019-04-07T07:13:09.422Z,51.00
2019-04-07T07:15:44.900Z,46.24
2019-04-07T07:18:35.698Z,51.62
2019-04-07T07:21:19.281Z,47.44
2019-04-07T07:23:48.946Z,46.74
2019-04-07T07:26:16.043Z,46.67
2019-04-07T07:28:44.970Z,45.92
2019-04-07T07:31:13.246Z,50.98
2019-04-07T07:33:42.680Z,46.33
2019-04-07T07:36:09.586Z,42.81
2019-04-07T07:38:36.815Z,41.50
2019-04-07T07:41:04.767Z,40.96
2019-04-07T07:43:32.261Z,41.51
2019-04-07T07:48:28.346Z,39.74
2019-04-07T07:50:55.846Z,37.45
2019-04-07T07:53:26.985Z,39.18
2019-04-07T07:55:52.128Z,38.25
2019-04-07T07:58:19.452Z,41.33
2019-04-07T08:00:47.007Z,38.18
2019-04-07T08:03:14.689Z,38.33
2019-04-07T08:05:42.217Z,39.76
2019-04-07T08:08:10.317Z,40.79
2019-04-07T08:10:38.204Z,38.68
2019-04-07T08:13:07.657Z,39.96
2019-04-07T08:15:34.834Z,38.41
2019-04-07T08:18:04.782Z,38.06
2019-04-07T08:20:31.742Z,37.77
2019-04-07T08:23:00.694Z,37.07
2019-04-07T08:25:28.201Z,35.41
2019-04-07T08:27:56.479Z,34.93
2019-04-07T08:30:24.964Z,38.16
2019-04-07T08:32:52.347Z,37.61
2019-04-07T08:35:19.841Z,34.92
2019-04-07T08:37:48.855Z,37.02
2019-04-07T08:40:16.560Z,33.14
2019-04-07T08:42:46.374Z,35.88
2019-04-07T08:45:13.217Z,35.71
2019-04-07T08:47:40.585Z,34.80
2019-04-07T08:50:08.550Z,35.32
2019-04-07T08:52:38.458Z,29.99
2019-04-07T08:55:06.015Z,31.86
2019-04-07T08:57:33.588Z,34.13
2019-04-07T09:00:01.018Z,29.44
2019-04-07T09:02:29.353Z,32.50
2019-04-07T09:04:57.556Z,31.88
2019-04-07T09:07:25.011Z,32.19
2019-04-07T09:09:52.275Z,30.89
2019-04-07T09:12:19.535Z,30.68
2019-04-07T09:14:46.766Z,29.21
2019-04-07T09:17:32.182Z,28.08
2019-04-07T09:20:23.766Z,28.71
2019-04-07T09:23:10.231Z,28.92
2019-04-07T09:25:57.367Z,28.39
2019-04-07T09:28:59.604Z,28.64
2019-04-07T09:31:58.730Z,27.04
2019-04-07T09:34:51.369Z,26.11
2019-04-07T09:37:39.894Z,25.00
2019-04-07T09:40:33.993Z,23.33
2019-04-07T09:43:21.109Z,23.95
2019-04-07T09:46:10.308Z,25.91
2019-04-07T09:48:44.230Z,24.93
2019-04-07T09:51:29.862Z,22.85
2019-04-07T09:54:22.168Z,23.66
2019-04-07T09:56:57.732Z,24.45
2019-04-07T09:59:52.479Z,22.34
2019-04-07T10:02:34.130Z,24.71
2019-04-07T10:05:21.748Z,25.87
2019-04-07T10:08:07.304Z,23.53
2019-04-07T10:11:04.159Z,23.60
2019-04-07T10:13:49.973Z,27.22
2019-04-07T10:16:28.480Z,25.11
2019-04-07T10:19:25.609Z,24.15
2019-04-07T10:22:12.626Z,22.78
2019-04-07T10:25:05.494Z,22.12
2019-04-07T10:28:07.327Z,23.96
2019-04-07T10:31:02.780Z,22.52
2019-04-07T10:33:59.307Z,22.84
2019-04-07T10:36:43.920Z,21.47
2019-04-07T10:39:17.546Z,23.78
2019-04-07T10:42:03.429Z,20.06
2019-04-07T10:44:47.928Z,19.55
2019-04-07T10:47:25.602Z,19.75
2019-04-07T10:50:22.153Z,19.88
2019-04-07T10:53:12.645Z,19.45
2019-04-07T10:55:45.273Z,19.72
2019-04-07T10:58:47.272Z,18.70
2019-04-07T11:01:33.527Z,20.63
2019-04-07T11:04:09.488Z,17.52
2019-04-07T11:06:54.948Z,19.33
2019-04-07T11:09:37.331Z,18.05
2019-04-07T11:12:27.564Z,16.22
2019-04-07T11:15:04.704Z,17.50
2019-04-07T11:17:43.673Z,17.25
2019-04-07T11:20:31.876Z,16.76
2019-04-07T11:23:04.664Z,17.44
2019-04-07T11:25:51.323Z,18.77
2019-04-07T11:28:28.870Z,16.57
2019-04-07T11:31:11.277Z,16.08
2019-04-07T11:34:04.389Z,17.41
2019-04-07T11:36:57.349Z,17.88
2019-04-07T11:39:33.782Z,17.32
2019-04-07T11:42:37.034Z,16.12
2019-04-07T11:45:25.871Z,16.36
2019-04-07T11:48:18.714Z,17.32
2019-04-07T11:51:18.477Z,18.13
2019-04-07T11:54:11.275Z,17.09
2019-04-07T11:57:06.899Z,16.89
2019-04-07T11:59:44.748Z,19.04
2019-04-07T12:02:42.363Z,18.11
2019-04-07T12:05:26.826Z,17.46
2019-04-07T12:08:10.453Z,18.05
2019-04-07T12:10:58.579Z,18.23
2019-04-07T12:13:31.298Z,18.09
2019-04-07T12:16:09.335Z,17.80
2019-04-07T12:18:55.495Z,20.79
2019-04-07T12:21:27.977Z,18.87
2019-04-07T12:24:14.804Z,20.37
2019-04-07T12:27:13.931Z,18.39
2019-04-07T12:30:10.085Z,20.62
2019-04-07T12:32:57.593Z,19.20
2019-04-07T12:35:53.477Z,20.44
2019-04-07T12:38:38.152Z,21.97
2019-04-07T12:41:18.355Z,21.60
2019-04-07T12:43:50.433Z,21.64
2019-04-07T12:46:23.058Z,22.46
2019-04-07T12:48:59.729Z,22.52
2019-04-07T12:51:38.467Z,19.80
2019-04-07T12:54:15.715Z,19.26
2019-04-07T12:57:21.973Z,18.85
2019-04-07T13:00:06.012Z,21.45
2019-04-07T13:03:05.955Z,22.79
2019-04-07T13:06:07.596Z,21.27
2019-04-07T13:08:43.672Z,23.55
2019-04-07T13:11:37.298Z,23.65
2019-04-07T13:14:25.765Z,20.64
2019-04-07T13:17:16.031Z,22.66
2019-04-07T13:20:02.326Z,20.58
2019-04-07T13:22:48.978Z,24.18
2019-04-07T13:25:31.276Z,22.90
2019-04-07T13:28:09.661Z,21.35
2019-04-07T13:31:12.463Z,21.62
2019-04-07T13:33:46.904Z,22.23
2019-04-07T13:36:31.349Z,24.78
2019-04-07T13:39:19.304Z,25.88
2019-04-07T13:42:05.304Z,22.40
2019-04-07T13:44:52.612Z,24.48
2019-04-07T13:47:43.625Z,23.59
2019-04-07T13:50:40.735Z,24.73
2019-04-07T13:53:33.673Z,23.84
2019-04-07T13:56:21.075Z,24.60
2019-04-07T13:58:59.789Z,26.71
2019-04-07T14:01:34.675Z,26.08
2019-04-07T14:04:21.719Z,25.38
2019-04-07T14:07:03.523Z,25.70
2019-04-07T14:10:09.111Z,25.94
2019-04-07T14:13:04.734Z,25.18
2019-04-07T14:16:01.441Z,25.19
2019-04-07T14:18:52.292Z,26.08
2019-04-07T14:21:46.342Z,25.37
2019-04-07T14:24:42.485Z,25.86
2019-04-07T14:27:19.583Z,25.88
2019-04-07T14:30:06.233Z,26.25
2019-04-07T14:33:05.389Z,26.15
2019-04-07T14:35:56.607Z,27.04
2019-04-07T14:38:59.548Z,25.82
2019-04-07T14:41:45.584Z,28.32
2019-04-07T14:44:25.765Z,25.73
2019-04-07T14:47:01.339Z,26.17
2019-04-07T14:49:52.132Z,25.89
2019-04-07T14:52:30.762Z,26.21
2019-04-07T14:55:18.401Z,26.45
2019-04-07T14:58:16.485Z,25.65
2019-04-07T15:01:05.533Z,25.26
2019-04-07T15:03:31.757Z,25.79
2019-04-07T15:05:59.610Z,26.83
2019-04-07T15:08:35.587Z,27.07
2019-04-07T15:11:15.434Z,27.54
2019-04-07T15:13:45.221Z,25.33
2019-04-07T15:16:11.341Z,25.72
2019-04-07T15:18:38.638Z,27.08
2019-04-07T15:21:06.806Z,26.83
2019-04-07T15:23:34.210Z,26.43
2019-04-07T15:26:02.169Z,26.97
2019-04-07T15:28:31.464Z,28.36
2019-04-07T15:30:59.261Z,29.38
2019-04-07T15:33:29.446Z,26.76
2019-04-07T15:35:55.902Z,27.54
2019-04-07T15:38:26.707Z,29.09
2019-04-07T15:40:52.170Z,27.94
2019-04-07T15:43:19.518Z,27.81
2019-04-07T15:45:47.045Z,27.35
2019-04-07T15:48:14.167Z,27.68
2019-04-07T15:50:41.754Z,28.97
2019-04-07T15:53:09.285Z,29.18
2019-04-07T15:55:45.524Z,26.49
2019-04-07T15:58:05.769Z,27.29
2019-04-07T16:00:35.184Z,27.99
2019-04-07T16:03:01.951Z,26.73
2019-04-07T16:05:30.020Z,28.08
2019-04-07T16:07:57.810Z,29.41
2019-04-07T16:10:26.098Z,29.13
2019-04-07T16:12:55.092Z,27.34
2019-04-07T16:15:23.139Z,28.22
2019-04-07T16:17:50.342Z,29.76
2019-04-07T16:20:24.695Z,29.68
2019-04-07T16:22:50.478Z,29.76
2019-04-07T16:25:18.188Z,30.05
2019-04-07T16:27:45.724Z,30.23
2019-04-07T16:30:16.081Z,29.42
2019-04-07T16:32:43.010Z,30.25
2019-04-07T16:35:15.561Z,27.91
2019-04-07T16:37:40.275Z,28.80
2019-04-07T16:40:10.597Z,28.44
2019-04-07T16:42:37.578Z,30.04
2019-04-07T16:45:06.069Z,28.01
2019-04-07T16:47:35.617Z,29.80
2019-04-07T16:50:03.300Z,30.56
2019-04-07T16:52:32.923Z,28.25
2019-04-07T16:54:59.728Z,28.71
2019-04-07T16:57:29.870Z,29.41
2019-04-07T16:59:56.453Z,29.62
2019-04-07T17:02:24.097Z,29.87
2019-04-07T17:04:51.501Z,30.17
2019-04-07T17:07:21.123Z,31.33
2019-04-07T17:09:48.857Z,30.42
2019-04-07T17:12:16.866Z,30.71
2019-04-07T17:14:44.824Z,30.85
2019-04-07T17:17:15.707Z,32.36
2019-04-07T17:19:41.601Z,32.57
2019-04-07T17:22:11.856Z,32.83
2019-04-07T17:24:38.868Z,32.78
2019-04-07T17:27:09.706Z,33.13
2019-04-07T17:29:35.543Z,33.27
2019-04-07T17:32:04.892Z,33.58
2019-04-07T17:34:35.681Z,33.13
2019-04-07T17:37:06.069Z,33.70
2019-04-07T17:39:57.354Z,33.91
2019-04-07T17:42:30.526Z,34.40
2019-04-07T17:45:23.654Z,34.29
2019-04-07T17:48:12.807Z,34.04
2019-04-07T17:51:06.268Z,34.55
2019-04-07T17:53:46.601Z,34.78
2019-04-07T17:56:29.710Z,34.51
2019-04-07T17:59:14.161Z,35.35
2019-04-07T18:02:11.909Z,34.19
2019-04-07T18:05:09.425Z,35.29
2019-04-07T18:07:59.439Z,35.28
2019-04-07T18:10:57.862Z,35.62
2019-04-07T18:13:59.954Z,34.69
2019-04-07T18:16:48.309Z,35.65
2019-04-07T18:19:33.884Z,35.72
2019-04-07T18:22:22.742Z,35.75
2019-04-07T18:25:02.810Z,36.00
2019-04-07T18:27:53.330Z,35.94
2019-04-07T18:30:47.259Z,36.33
2019-04-07T18:33:33.566Z,36.16
2019-04-07T18:36:34.727Z,36.57
2019-04-07T18:39:29.664Z,36.68
2019-04-07T18:42:07.993Z,36.94
2019-04-07T18:44:57.476Z,36.94
2019-04-07T18:48:03.348Z,36.76
2019-04-07T18:51:00.798Z,37.56
2019-04-07T18:53:51.963Z,37.12
2019-04-07T18:56:45.621Z,37.60
2019-04-07T18:59:41.362Z,37.85
2019-04-07T19:02:28.908Z,38.13
2019-04-07T19:05:24.889Z,38.16
2019-04-07T19:08:21.671Z,38.40
2019-04-07T19:11:15.979Z,38.61
2019-04-07T19:14:21.837Z,38.47
2019-04-07T19:16:36.161Z,39.03
2019-04-07T19:19:29.970Z,39.15
2019-04-07T19:22:19.702Z,39.58
2019-04-07T19:25:21.552Z,39.57
2019-04-07T19:28:07.803Z,39.73
2019-04-07T19:31:00.715Z,39.84
2019-04-07T19:34:01.138Z,40.36
2019-04-07T19:36:36.898Z,40.05
2019-04-07T19:39:31.667Z,40.09
2019-04-07T19:42:17.664Z,40.05
2019-04-07T19:45:17.592Z,40.46
2019-04-07T19:47:55.897Z,41.11
2019-04-07T19:50:43.004Z,40.79
2019-04-07T19:53:31.017Z,40.97
2019-04-07T19:56:34.025Z,41.40
2019-04-07T19:59:12.751Z,41.76
2019-04-07T20:02:09.587Z,41.23
2019-04-07T20:04:53.174Z,41.66
2019-04-07T20:07:35.283Z,42.16
2019-04-07T20:10:20.622Z,42.43
2019-04-07T20:12:56.254Z,42.22
2019-04-07T20:15:41.739Z,42.57
2019-04-07T20:18:35.422Z,42.69
2019-04-07T20:21:34.829Z,43.20
2019-04-07T20:24:13.150Z,43.32
2019-04-07T20:27:05.242Z,42.93
2019-04-07T20:29:45.923Z,42.89
2019-04-07T20:32:55.497Z,42.69
2019-04-07T20:35:50.070Z,42.80
2019-04-07T20:38:30.257Z,43.94
2019-04-07T20:41:12.057Z,43.97
2019-04-07T20:44:05.495Z,44.12
2019-04-07T20:46:56.844Z,44.33
2019-04-07T20:50:10.403Z,44.12
2019-04-07T20:52:54.424Z,44.62
2019-04-07T20:55:47.018Z,44.24
2019-04-07T20:58:44.385Z,44.62
2019-04-07T21:01:25.593Z,45.03
2019-04-07T21:04:21.714Z,45.93
2019-04-07T21:07:08.782Z,45.47
2019-04-07T21:09:55.359Z,46.22
2019-04-07T21:12:33.654Z,45.85
2019-04-07T21:15:25.878Z,45.56
2019-04-07T21:18:09.461Z,45.93
2019-04-07T21:20:55.228Z,44.99
2019-04-07T21:23:42.043Z,44.61
2019-04-07T21:26:27.773Z,45.77
2019-04-07T21:29:07.404Z,45.73
2019-04-07T21:32:09.793Z,45.86
2019-04-07T21:34:47.227Z,46.27
2019-04-07T21:37:40.886Z,45.31
2019-04-07T21:40:21.060Z,45.81
2019-04-07T21:43:00.454Z,46.01
2019-04-07T21:45:47.218Z,46.21
2019-04-07T21:48:37.919Z,45.71
2019-04-07T21:51:23.650Z,44.73
2019-04-07T21:54:09.827Z,46.23
2019-04-07T21:57:04.797Z,46.79
2019-04-07T22:00:00.914Z,46.87
2019-04-07T22:02:47.926Z,46.26
2019-04-07T22:05:27.261Z,45.76
2019-04-07T22:08:09.551Z,46.82
2019-04-07T22:10:31.915Z,45.88
2019-04-07T22:13:02.464Z,45.77
2019-04-07T22:15:40.595Z,45.51
2019-04-07T22:17:58.281Z,45.20
2019-04-07T22:20:25.876Z,44.89
2019-04-07T22:22:54.330Z,44.66
2019-04-07T22:25:30.528Z,44.66
2019-04-07T22:27:59.127Z,44.69
2019-04-07T22:30:26.597Z,45.18
2019-04-07T22:32:54.131Z,45.71
2019-04-07T22:35:21.728Z,45.82
2019-04-07T22:37:50.263Z,46.86
2019-04-07T22:40:19.447Z,46.94
2019-04-07T22:42:47.822Z,47.12
2019-04-07T22:45:16.131Z,48.10
2019-04-07T22:47:43.461Z,48.46
2019-04-07T22:50:11.146Z,47.82
2019-04-07T22:52:38.416Z,46.99
2019-04-07T22:55:08.373Z,48.33
2019-04-07T22:57:35.678Z,47.13
2019-04-07T23:00:06.371Z,47.28
2019-04-07T23:02:33.801Z,47.16
2019-04-07T23:05:01.046Z,47.91
2019-04-07T23:07:28.442Z,47.05
2019-04-07T23:09:55.982Z,45.50
2019-04-07T23:12:23.249Z,47.35
2019-04-07T23:14:50.731Z,46.39
2019-04-07T23:17:19.449Z,46.56
2019-04-07T23:19:56.636Z,46.20
2019-04-07T23:22:30.488Z,46.44
2019-04-07T23:24:57.733Z,47.58
2019-04-07T23:27:25.047Z,47.24
2019-04-07T23:29:52.773Z,47.02
2019-04-07T23:32:19.986Z,47.36
2019-04-07T23:34:47.785Z,48.36
2019-04-07T23:37:15.215Z,48.15
2019-04-07T23:39:42.473Z,48.38
2019-04-07T23:42:09.759Z,49.10
2019-04-07T23:44:37.341Z,49.17
2019-04-07T23:47:04.823Z,50.45
2019-04-07T23:49:32.303Z,49.89
2019-04-07T23:51:59.552Z,49.67
2019-04-07T23:54:26.936Z,49.94
2019-04-07T23:56:54.275Z,50.62
2019-04-07T23:59:21.542Z,49.27
